Latest Weather Observations for Ocean Reef

IDW60901

Issued at 2:41 am WST Monday 24 July 2017 (issued every 10 minutes, with the page automatically refreshed every 10 minutes)

About weather observations | Map of Perth area stations | Latest observations for Perth area | Other Formats
Station Details ID: 009214 Name: OCEAN REEF Lat: -31.76 Lon: 115.73 Height: 10.0 m
Data from the previous 72 hours. | See also: Recent months at Ocean Reef
Date/Time
WST
Temp
°C
App
Temp
°C
Dew
Point
°C
Rel
Hum
%
Delta-T
°C
Wind Press
QNH
hPa
Press
MSL
hPa
Rain since
9am
mm
Dir  Spd
km/h
Gust
km/h
Spd
kts
Gust
kts
24/02:30am - - - - - WSW 20 26 11 14 - - -
24/02:00am - - - - - WSW 19 24 10 13 - - -
24/01:30am - - - - - W 20 26 11 14 - - -
24/01:00am - - - - - WSW 26 33 14 18 - - -
24/12:30am - - - - - W 24 30 13 16 - - -
24/12:00am - - - - - WSW 22 28 12 15 - - -
 
Date/Time
WST
Temp
°C
App
Temp
°C
Dew
Point
°C
Rel
Hum
%
Delta-T
°C
Wind Press
QNH
hPa
Press
MSL
hPa
Rain since
9am
mm
Dir  Spd
km/h
Gust
km/h
Spd
kts
Gust
kts
23/11:30pm - - - - - WSW 24 33 13 18 - - -
23/11:00pm - - - - - WSW 24 35 13 19 - - -
23/10:30pm - - - - - WSW 26 30 14 16 - - -
23/10:00pm - - - - - SW 28 35 15 19 - - -
23/09:30pm - - - - - WSW 17 26 9 14 - - -
23/09:00pm - - - - - SW 28 33 15 18 - - -
23/08:30pm - - - - - WSW 26 33 14 18 - - -
23/08:00pm - - - - - WSW 24 33 13 18 - - -
23/07:30pm - - - - - WSW 28 32 15 17 - - -
23/07:00pm - - - - - SW 20 33 11 18 - - -
23/06:30pm - - - - - W 24 32 13 17 - - -
23/06:10pm - - - - - W 26 48 14 26 - - -
23/06:00pm - - - - - WSW 20 24 11 13 - - -
23/05:30pm - - - - - WSW 20 26 11 14 - - -
23/05:00pm - - - - - WSW 30 37 16 20 - - -
23/04:30pm - - - - - WSW 30 35 16 19 - - -
23/04:00pm - - - - - SW 32 43 17 23 - - -
23/03:30pm - - - - - W 28 32 15 17 - - -
23/03:00pm - - - - - W 30 35 16 19 - - -
23/02:30pm - - - - - W 30 37 16 20 - - -
23/02:00pm - - - - - W 28 33 15 18 - - -
23/01:30pm - - - - - WSW 30 43 16 23 - - -
23/01:12pm - - - - - W 32 41 17 22 - - -
23/01:00pm - - - - - W 41 50 22 27 - - -
23/12:30pm - - - - - W 48 63 26 34 - - -
23/12:24pm - - - - - WNW 44 63 24 34 - - -
23/12:18pm - - - - - WNW 33 57 18 31 - - -
23/12:00pm - - - - - W 44 57 24 31 - - -
23/11:48am - - - - - NNW 37 52 20 28 - - -
23/11:30am - - - - - NW 41 52 22 28 - - -
23/11:00am - - - - - NW 48 57 26 31 - - -
23/10:30am - - - - - NW 41 50 22 27 - - -
23/10:00am - - - - - NW 43 52 23 28 - - -
23/09:30am - - - - - NW 39 48 21 26 - - -
23/09:20am - - - - - NNW 32 48 17 26 - - -
23/09:19am - - - - - N 30 48 16 26 - - -
23/09:00am - - - - - N 20 30 11 16 - - -
23/08:30am - - - - - N 20 30 11 16 - - -
23/08:00am - - - - - NNE 17 26 9 14 - - -
23/07:30am - - - - - NNE 24 32 13 17 - - -
23/07:00am - - - - - N 17 30 9 16 - - -
23/06:30am - - - - - NNE 19 30 10 16 - - -
23/06:00am - - - - - NNE 17 24 9 13 - - -
23/05:30am - - - - - NNE 19 26 10 14 - - -
23/05:00am - - - - - NNE 15 20 8 11 - - -
23/04:30am - - - - - NNE 19 24 10 13 - - -
23/04:00am - - - - - NNE 19 24 10 13 - - -
23/03:30am - - - - - NNE 17 26 9 14 - - -
23/03:00am - - - - - NNE 22 28 12 15 - - -
23/02:30am - - - - - NNE 19 26 10 14 - - -
23/02:00am - - - - - NNE 20 30 11 16 - - -
23/01:30am - - - - - NNE 17 24 9 13 - - -
23/01:00am - - - - - NNE 17 22 9 12 - - -
23/12:30am - - - - - NNE 15 19 8 10 - - -
23/12:00am - - - - - N 11 17 6 9 - - -
 
Date/Time
WST
Temp
°C
App
Temp
°C
Dew
Point
°C
Rel
Hum
%
Delta-T
°C
Wind Press
QNH
hPa
Press
MSL
hPa
Rain since
9am
mm
Dir  Spd
km/h
Gust
km/h
Spd
kts
Gust
kts
22/11:30pm - - - - - NNE 15 19 8 10 - - -
22/11:00pm - - - - - NNE 13 19 7 10 - - -
22/10:30pm - - - - - NNE 17 20 9 11 - - -
22/10:00pm - - - - - WNW 13 17 7 9 - - -
22/09:30pm - - - - - W 17 20 9 11 - - -
22/09:00pm - - - - - W 17 22 9 12 - - -
22/08:30pm - - - - - W 17 20 9 11 - - -
22/08:00pm - - - - - WSW 17 19 9 10 - - -
22/07:30pm - - - - - WSW 13 17 7 9 - - -
22/07:00pm - - - - - W 15 19 8 10 - - -
22/06:30pm - - - - - W 13 17 7 9 - - -
22/06:00pm - - - - - WSW 26 33 14 18 - - -
22/05:30pm - - - - - WSW 33 39 18 21 - - -
22/05:00pm - - - - - WSW 19 26 10 14 - - -
22/04:30pm - - - - - WSW 24 30 13 16 - - -
22/04:00pm - - - - - W 19 24 10 13 - - -
22/03:30pm - - - - - W 17 19 9 10 - - -
22/03:00pm - - - - - W 19 22 10 12 - - -
22/02:30pm - - - - - W 19 24 10 13 - - -
22/02:00pm - - - - - WNW 20 28 11 15 - - -
22/01:30pm - - - - - W 17 20 9 11 - - -
22/01:00pm - - - - - WSW 20 22 11 12 - - -
22/12:30pm - - - - - W 17 24 9 13 - - -
22/12:00pm - - - - - WSW 17 20 9 11 - - -
22/11:30am - - - - - WSW 11 19 6 10 - - -
22/11:00am - - - - - WSW 15 20 8 11 - - -
22/10:30am - - - - - WSW 17 20 9 11 - - -
22/10:00am - - - - - W 26 35 14 19 - - -
22/09:30am - - - - - WSW 17 26 9 14 - - -
22/09:00am - - - - - SSW 11 15 6 8 - - -
22/08:30am - - - - - SW 24 28 13 15 - - -
22/08:00am - - - - - SW 24 46 13 25 - - -
22/07:30am - - - - - SW 24 32 13 17 - - -
22/07:00am - - - - - WNW 24 32 13 17 - - -
22/06:30am - - - - - W 20 26 11 14 - - -
22/06:00am - - - - - W 22 28 12 15 - - -
22/05:30am - - - - - W 20 26 11 14 - - -
22/05:00am - - - - - WSW 26 32 14 17 - - -
22/04:30am - - - - - WSW 22 26 12 14 - - -
22/04:00am - - - - - SW 19 26 10 14 - - -
22/03:30am - - - - - SW 24 30 13 16 - - -
22/03:00am - - - - - SW 24 30 13 16 - - -
22/02:30am - - - - - WSW 22 28 12 15 - - -
22/02:00am - - - - - SW 26 30 14 16 - - -
22/01:30am - - - - - SW 30 37 16 20 - - -
22/01:00am - - - - - SW 30 37 16 20 - - -
22/12:30am - - - - - SW 28 33 15 18 - - -
22/12:00am - - - - - SW 32 39 17 21 - - -
 
Date/Time
WST
Temp
°C
App
Temp
°C
Dew
Point
°C
Rel
Hum
%
Delta-T
°C
Wind Press
QNH
hPa
Press
MSL
hPa
Rain since
9am
mm
Dir  Spd
km/h
Gust
km/h
Spd
kts
Gust
kts
21/11:50pm - - - - - SW 32 50 17 27 - - -
21/11:42pm - - - - - WSW 28 50 15 27 - - -
21/11:30pm - - - - - W 26 32 14 17 - - -
21/11:00pm - - - - - WSW 30 41 16 22 - - -
21/10:30pm - - - - - WSW 35 48 19 26 - - -
21/10:15pm - - - - - WSW 35 50 19 27 - - -
21/10:00pm - - - - - W 33 39 18 21 - - -
21/09:30pm - - - - - W 32 37 17 20 - - -
21/09:24pm - - - - - WSW 39 57 21 31 - - -
21/09:00pm - - - - - W 39 54 21 29 - - -
21/08:55pm - - - - - WNW 39 54 21 29 - - -
21/08:35pm - - - - - WNW 33 59 18 32 - - -
21/08:30pm - - - - - WNW 35 44 19 24 - - -
21/08:00pm - - - - - NW 41 56 22 30 - - -
21/07:30pm - - - - - WNW 46 57 25 31 - - -
21/07:00pm - - - - - WNW 44 54 24 29 - - -
21/06:30pm - - - - - WNW 43 52 23 28 - - -
21/06:00pm - - - - - NW 48 56 26 30 - - -
21/05:30pm - - - - - WNW 46 56 25 30 - - -
21/05:00pm - - - - - WNW 46 56 25 30 - - -
21/04:30pm - - - - - NW 41 52 22 28 - - -
21/04:00pm - - - - - NW 44 56 24 30 - - -
21/03:30pm - - - - - NW 48 56 26 30 - - -
21/03:05pm - - - - - NW 41 69 22 37 - - -
21/03:00pm - - - - - NW 41 50 22 27 - - -
21/02:30pm - - - - - WNW 43 52 23 28 - - -
21/02:00pm - - - - - WNW 43 52 23 28 - - -
21/01:30pm - - - - - WNW 46 54 25 29 - - -
21/01:00pm - - - - - WNW 48 57 26 31 - - -
21/12:30pm - - - - - WNW 44 54 24 29 - - -
21/12:00pm - - - - - WNW 43 52 23 28 - - -
21/11:30am - - - - - NW 41 52 22 28 - - -
21/11:00am - - - - - WNW 39 50 21 27 - - -
21/10:30am - - - - - WNW 44 52 24 28 - - -
21/10:00am - - - - - WNW 35 43 19 23 - - -
21/09:30am - - - - - WNW 39 48 21 26 - - -
21/09:00am - - - - - W 37 52 20 28 - - -
21/08:30am - - - - - W 33 39 18 21 - - -
21/08:00am - - - - - W 35 41 19 22 - - -
21/07:30am - - - - - W 32 37 17 20 - - -
21/07:00am - - - - - W 33 37 18 20 - - -
21/06:30am - - - - - W 32 39 17 21 - - -
21/06:00am - - - - - W 35 41 19 22 - - -
21/05:30am - - - - - W 33 39 18 21 - - -
21/05:00am - - - - - W 33 37 18 20 - - -
21/04:30am - - - - - W 33 41 18 22 - - -
21/04:00am - - - - - W 32 39 17 21 - - -
21/03:30am - - - - - WNW 33 41 18 22 - - -
21/03:00am - - - - - W 30 35 16 19 - - -

Latest Capital City Observations: Canberra | Sydney | Melbourne | Brisbane | Adelaide | Perth | Hobart | Darwin

Other Formats:

Comma delimited format used in spreadsheet applications
http://www.bom.gov.au/fwo/IDW60901/IDW60901.94607.axf

JavaScript Object Notation format (JSON) in row-major order
http://www.bom.gov.au/fwo/IDW60901/IDW60901.94607.json